Terminal Aerodrome Forecast
Issued by NWS

Current Version | Previous Version | Text Only | Print | Product List | Glossary On
Versions: 1 2 3 4 5 6 7 8 9 10 11 12
000
FTUS42 KGSP 252337
TAFAND
TAF
KAND 252337Z 2600/2624 19004KT P6SM SKC
     FM260400 VRB03KT P6SM SCT100
     FM261600 22006KT P6SM SCT050 PROB30 2620/2624 4SM TSRA
      BKN040CB=

USA.gov is the U.S. government's official web portal to all federal, state and local government web resources and services.